Time;durP1;ratioP1;P1;durP2;ratioP2;P2;SDS_P1;SDS_P2;PMS_P1;PMS_P2;Temp;Humidity;BMP_temperature;BMP_pressure;BME280_temperature;BME280_humidity;BME280_pressure;Samples;Min_cycle;Max_cycle;Signal;HPM_P1;HPM_P2
2022/04/14 00:01:37;;;;;;;;;78.00;62.25;11.80;46.00;;;;;;4977630;28;8788;-61
2022/04/14 00:04:03;;;;;;;;;76.25;61.00;11.50;46.90;;;;;;4977628;28;8798;-61
2022/04/14 00:06:29;;;;;;;;;76.00;60.00;11.90;45.80;;;;;;4977248;28;8801;-60
2022/04/14 00:08:55;;;;;;;;;85.75;72.50;11.90;45.90;;;;;;4977510;28;8827;-61
2022/04/14 00:11:21;;;;;;;;;88.00;75.25;11.50;47.30;;;;;;4977499;28;8836;-60
2022/04/14 00:13:47;;;;;;;;;85.75;73.25;11.90;46.20;;;;;;4976512;28;8899;-61
2022/04/14 00:16:13;;;;;;;;;85.25;71.50;11.90;45.70;;;;;;4977167;28;8789;-60
2022/04/14 00:18:39;;;;;;;;;84.50;74.75;12.00;45.80;;;;;;4977458;28;9675;-61
2022/04/14 00:21:04;;;;;;;;;81.50;65.75;12.20;45.30;;;;;;4977186;28;8891;-61
2022/04/14 00:23:30;;;;;;;;;81.00;65.00;12.50;44.80;;;;;;4977098;28;8793;-61
2022/04/14 00:25:56;;;;;;;;;78.75;66.00;12.40;44.10;;;;;;4977221;28;8812;-61
2022/04/14 00:28:21;;;;;;;;;69.25;57.25;12.30;44.60;;;;;;4977228;28;9658;-60
2022/04/14 00:30:47;;;;;;;;;72.50;57.00;12.60;43.80;;;;;;4977242;28;8812;-62
2022/04/14 00:33:13;;;;;;;;;67.50;53.50;12.50;43.70;;;;;;4977180;28;8859;-62
2022/04/14 00:35:39;;;;;;;;;62.25;52.75;12.40;43.70;;;;;;4977099;28;9460;-60
2022/04/14 00:38:04;;;;;;;;;64.75;52.75;12.30;43.70;;;;;;4977037;28;8803;-60
2022/04/14 00:40:30;;;;;;;;;64.25;51.50;12.30;43.90;;;;;;4976943;28;8779;-60
2022/04/14 00:42:56;;;;;;;;;62.50;52.00;12.00;44.70;;;;;;4976858;28;8769;-61
2022/04/14 00:45:21;;;;;;;;;59.25;49.25;12.20;44.10;;;;;;4976551;28;8871;-61
2022/04/14 00:47:48;;;;;;;;;54.25;45.00;12.10;43.90;;;;;;4975894;28;8764;-61
2022/04/14 00:50:13;;;;;;;;;46.75;41.50;12.20;44.50;;;;;;4976841;28;8773;-61
2022/04/14 00:52:48;;;;;;;;;51.00;40.75;12.40;43.30;;;;;;4976389;28;8835;-60
2022/04/14 00:55:14;;;;;;;;;45.50;40.75;12.10;43.40;;;;;;4976441;28;8828;-60
2022/04/14 00:57:42;;;;;;;;;48.25;39.25;11.60;44.90;;;;;;4976730;28;8761;-61
2022/04/14 01:00:08;;;;;;;;;52.25;44.25;11.50;45.40;;;;;;4976293;28;8797;-61
2022/04/14 01:02:34;;;;;;;;;50.50;40.25;11.30;46.50;;;;;;4976597;28;8803;-61
2022/04/14 01:05:02;;;;;;;;;52.00;44.50;11.10;47.10;;;;;;4976460;28;8812;-60
2022/04/14 01:07:28;;;;;;;;;47.00;39.75;11.30;47.00;;;;;;4976319;28;8780;-60
2022/04/14 01:09:55;;;;;;;;;55.50;44.25;10.90;48.20;;;;;;4976241;28;8896;-61
2022/04/14 01:12:21;;;;;;;;;47.00;40.25;10.30;50.10;;;;;;4976434;28;8805;-61
2022/04/14 01:14:47;;;;;;;;;52.50;40.50;10.30;50.80;;;;;;4976518;28;8831;-61
2022/04/14 01:17:13;;;;;;;;;50.00;42.00;11.00;48.70;;;;;;4976327;28;8781;-61
2022/04/14 01:19:39;;;;;;;;;56.75;45.75;11.50;46.90;;;;;;4976042;28;8761;-60
2022/04/14 01:22:15;;;;;;;;;49.00;40.75;11.60;47.00;;;;;;4975969;28;8815;-61
2022/04/14 01:24:41;;;;;;;;;56.00;45.00;11.90;46.70;;;;;;4975656;28;8829;-61
2022/04/14 01:27:08;;;;;;;;;55.00;45.75;12.10;46.10;;;;;;4976005;28;8761;-61
2022/04/14 01:29:34;;;;;;;;;53.75;42.00;12.00;45.70;;;;;;4976181;28;8851;-60
2022/04/14 01:32:02;;;;;;;;;55.25;45.25;12.00;46.10;;;;;;4975876;28;8773;-61
2022/04/14 01:34:30;;;;;;;;;55.75;45.75;11.70;46.50;;;;;;4976059;28;8804;-61
2022/04/14 01:36:57;;;;;;;;;55.50;44.75;11.90;46.10;;;;;;4975984;28;9692;-60
2022/04/14 01:39:24;;;;;;;;;56.25;45.25;11.40;47.20;;;;;;4976081;28;8835;-61
2022/04/14 01:41:49;;;;;;;;;57.25;45.00;11.50;48.00;;;;;;4975986;28;8765;-61
2022/04/14 01:44:15;;;;;;;;;48.75;40.75;11.60;48.40;;;;;;4975812;28;9867;-61
2022/04/14 01:46:41;;;;;;;;;52.25;43.75;11.70;47.70;;;;;;4975957;28;8820;-61
2022/04/14 01:49:11;;;;;;;;;57.25;47.00;11.90;46.80;;;;;;4975886;28;8887;-60
2022/04/14 01:51:37;;;;;;;;;56.50;45.00;11.80;47.00;;;;;;4975463;28;8821;-61
2022/04/14 01:54:04;;;;;;;;;58.50;47.25;11.80;46.60;;;;;;4975609;28;8871;-60
2022/04/14 01:56:30;;;;;;;;;53.50;44.50;11.70;46.80;;;;;;4975798;28;8863;-60
2022/04/14 01:58:56;;;;;;;;;52.50;44.75;11.60;47.00;;;;;;4975745;28;8773;-60
2022/04/14 02:01:22;;;;;;;;;62.75;51.00;11.60;47.00;;;;;;4975721;28;8787;-61
2022/04/14 02:03:48;;;;;;;;;60.00;46.75;11.20;48.00;;;;;;4975528;28;8777;-61
2022/04/14 02:06:15;;;;;;;;;65.50;54.00;11.20;48.20;;;;;;4975662;28;8807;-60
2022/04/14 02:08:41;;;;;;;;;66.50;53.75;11.50;47.30;;;;;;4975479;28;8805;-61
2022/04/14 02:11:07;;;;;;;;;69.00;53.75;11.20;48.30;;;;;;4975437;28;8769;-60
2022/04/14 02:13:33;;;;;;;;;62.25;49.75;10.60;50.20;;;;;;4975481;28;8789;-61
2022/04/14 02:16:00;;;;;;;;;60.25;50.00;10.90;49.50;;;;;;4975343;28;8777;-61
2022/04/14 02:18:26;;;;;;;;;60.00;50.25;10.80;49.70;;;;;;4975392;28;8792;-61
2022/04/14 02:20:52;;;;;;;;;55.50;45.75;10.30;51.20;;;;;;4975254;28;8817;-61
2022/04/14 02:23:18;;;;;;;;;55.50;47.00;10.70;50.00;;;;;;4975648;28;8777;-60
2022/04/14 02:25:44;;;;;;;;;55.75;47.50;11.00;48.50;;;;;;4975218;28;8883;-61
2022/04/14 02:28:11;;;;;;;;;54.50;47.00;10.90;48.60;;;;;;4975267;28;8777;-61
2022/04/14 02:30:37;;;;;;;;;57.25;47.50;11.30;47.00;;;;;;4975516;28;8839;-61
2022/04/14 02:33:03;;;;;;;;;58.00;46.50;11.20;46.90;;;;;;4975469;28;8887;-60
2022/04/14 02:35:29;;;;;;;;;58.50;47.00;10.60;48.20;;;;;;4975444;28;8785;-60
2022/04/14 02:37:56;;;;;;;;;51.00;43.25;10.70;48.20;;;;;;4978882;28;9435;-61
2022/04/14 02:40:24;;;;;;;;;50.25;42.00;10.50;48.30;;;;;;4978942;28;8780;-61
2022/04/14 02:42:50;;;;;;;;;50.00;43.00;9.90;50.20;;;;;;4978988;28;9506;-61
2022/04/14 02:45:16;;;;;;;;;54.50;46.25;10.00;50.50;;;;;;4979048;28;8804;-61
2022/04/14 02:47:41;;;;;;;;;56.50;46.00;10.50;48.80;;;;;;4978981;28;8808;-61
2022/04/14 02:50:08;;;;;;;;;51.00;42.00;10.90;48.10;;;;;;4979041;28;8793;-61
2022/04/14 02:52:33;;;;;;;;;60.00;46.25;10.90;48.10;;;;;;4978583;28;8956;-61
2022/04/14 02:54:59;;;;;;;;;57.75;47.50;11.10;47.60;;;;;;4978607;28;8808;-60
2022/04/14 02:57:25;;;;;;;;;58.25;49.00;11.10;48.30;;;;;;4978832;28;8791;-61
2022/04/14 02:59:51;;;;;;;;;56.75;46.50;11.20;48.20;;;;;;4978626;28;9412;-60
2022/04/14 03:02:16;;;;;;;;;61.00;50.00;11.10;48.50;;;;;;4978774;28;8781;-61
2022/04/14 03:04:42;;;;;;;;;55.75;45.75;10.90;48.60;;;;;;4978515;28;9692;-61
2022/04/14 03:07:08;;;;;;;;;37.25;36.00;10.80;48.10;;;;;;4978674;28;8789;-61
2022/04/14 03:09:33;;;;;;;;;42.75;39.25;10.80;47.20;;;;;;4978508;28;8758;-60
2022/04/14 03:11:59;;;;;;;;;32.50;32.00;10.90;47.00;;;;;;4965327;28;8778;-60
2022/04/14 03:14:25;;;;;;;;;43.00;38.75;10.70;47.70;;;;;;4939832;29;8824;-60
2022/04/14 03:16:51;;;;;;;;;37.00;34.00;10.60;48.60;;;;;;4943846;29;8828;-61
2022/04/14 03:19:16;;;;;;;;;34.50;32.75;10.90;48.10;;;;;;4954464;28;8821;-59
2022/04/14 03:21:42;;;;;;;;;43.25;38.00;11.00;47.70;;;;;;4959176;28;8767;-61
2022/04/14 03:24:08;;;;;;;;;33.75;32.50;10.50;48.40;;;;;;4959124;28;9680;-61
2022/04/14 03:26:33;;;;;;;;;39.00;36.00;10.60;48.50;;;;;;4958743;28;8798;-61
2022/04/14 03:28:59;;;;;;;;;37.50;36.50;10.60;48.40;;;;;;4959036;28;8771;-61
2022/04/14 03:31:25;;;;;;;;;41.75;37.50;10.70;48.70;;;;;;4959019;28;8805;-61
2022/04/14 03:33:51;;;;;;;;;38.50;36.75;10.70;48.10;;;;;;4959185;28;9353;-61
2022/04/14 03:36:17;;;;;;;;;41.50;37.50;10.70;48.30;;;;;;4958652;28;8917;-61
2022/04/14 03:38:42;;;;;;;;;41.75;37.50;10.40;49.00;;;;;;4958045;28;8782;-61
2022/04/14 03:41:09;;;;;;;;;46.25;40.00;10.40;49.20;;;;;;4950371;28;8889;-60
2022/04/14 03:43:35;;;;;;;;;45.75;37.50;10.30;49.70;;;;;;4958688;28;8849;-61
2022/04/14 03:46:02;;;;;;;;;46.50;41.25;10.30;50.40;;;;;;4958708;28;8822;-61
2022/04/14 03:48:28;;;;;;;;;48.00;41.25;10.40;50.00;;;;;;4958474;28;9540;-60
2022/04/14 03:50:54;;;;;;;;;45.00;38.00;10.40;49.70;;;;;;4958367;28;8820;-60
2022/04/14 03:53:20;;;;;;;;;53.50;44.00;10.50;49.30;;;;;;4957152;28;8788;-61
2022/04/14 03:55:46;;;;;;;;;64.75;52.25;10.60;49.30;;;;;;4948307;28;8830;-61
2022/04/14 03:58:14;;;;;;;;;50.25;42.25;10.70;49.00;;;;;;4958448;28;9455;-60
2022/04/14 04:00:43;;;;;;;;;59.00;47.25;10.90;48.60;;;;;;4958167;28;8776;-61
2022/04/14 04:03:12;;;;;;;;;56.75;47.25;10.80;48.60;;;;;;4958382;28;8784;-61
2022/04/14 04:05:39;;;;;;;;;62.00;48.75;10.60;49.60;;;;;;4958327;28;8918;-60
2022/04/14 04:08:05;;;;;;;;;74.25;59.25;10.70;49.70;;;;;;4958032;28;8792;-61
2022/04/14 04:10:31;;;;;;;;;77.50;58.75;10.50;49.80;;;;;;4957958;28;8788;-61
2022/04/14 04:12:57;;;;;;;;;76.25;58.50;10.60;49.80;;;;;;4958005;28;9443;-60
2022/04/14 04:15:23;;;;;;;;;69.00;57.25;10.70;49.30;;;;;;4957942;28;8796;-61
2022/04/14 04:17:51;;;;;;;;;64.25;51.50;10.50;49.80;;;;;;4957926;28;8808;-60
2022/04/14 04:20:18;;;;;;;;;62.00;49.75;10.40;50.20;;;;;;4957771;28;8837;-61
2022/04/14 04:22:44;;;;;;;;;57.00;47.25;10.50;49.50;;;;;;4958041;28;8854;-61
2022/04/14 04:25:10;;;;;;;;;58.00;47.25;10.50;49.50;;;;;;4957920;28;8804;-61
2022/04/14 04:27:37;;;;;;;;;59.75;48.50;10.60;50.00;;;;;;4957885;28;8839;-60
2022/04/14 04:30:04;;;;;;;;;62.50;49.00;10.50;50.00;;;;;;4957824;28;8777;-61
2022/04/14 04:32:33;;;;;;;;;60.50;50.00;10.50;49.40;;;;;;4957540;28;8796;-60
2022/04/14 04:35:00;;;;;;;;;52.75;40.25;10.40;49.80;;;;;;4957602;28;8811;-61
2022/04/14 04:37:25;;;;;;;;;57.50;46.75;10.40;49.70;;;;;;4957457;28;8910;-60
2022/04/14 04:39:51;;;;;;;;;61.00;51.00;10.60;49.40;;;;;;4951735;28;8919;-59
2022/04/14 04:42:17;;;;;;;;;66.75;52.50;10.70;48.80;;;;;;4948538;29;8909;-60
2022/04/14 04:44:42;;;;;;;;;64.75;53.75;10.70;49.30;;;;;;4938298;29;8850;-60
2022/04/14 04:47:08;;;;;;;;;65.50;52.50;10.70;49.10;;;;;;4938379;29;8834;-59
2022/04/14 04:49:34;;;;;;;;;67.50;54.50;10.60;49.10;;;;;;4938334;28;8894;-60
2022/04/14 04:52:00;;;;;;;;;65.00;54.00;10.60;49.40;;;;;;4947871;29;8945;-61
2022/04/14 04:54:26;;;;;;;;;72.75;57.75;10.80;50.10;;;;;;4945164;28;8812;-62
2022/04/14 04:56:53;;;;;;;;;68.00;55.00;10.80;49.30;;;;;;4957285;28;8796;-59
2022/04/14 04:59:18;;;;;;;;;71.75;58.25;10.90;49.40;;;;;;4956586;28;8808;-64
2022/04/14 05:01:44;;;;;;;;;66.25;55.25;11.00;48.90;;;;;;4957030;28;8882;-63
2022/04/14 05:04:11;;;;;;;;;63.25;52.00;11.00;48.70;;;;;;4956949;28;8772;-60
2022/04/14 05:06:37;;;;;;;;;67.50;55.75;11.00;48.70;;;;;;4955907;28;8804;-58
2022/04/14 05:09:04;;;;;;;;;65.25;54.00;11.00;48.70;;;;;;4957150;28;8795;-58
2022/04/14 05:11:29;;;;;;;;;64.25;53.00;11.00;49.30;;;;;;4957066;28;8784;-58
2022/04/14 05:13:55;;;;;;;;;78.25;63.75;11.00;48.70;;;;;;4956927;28;8858;-60
2022/04/14 05:16:21;;;;;;;;;76.75;60.00;10.80;49.30;;;;;;4956800;28;9215;-59
2022/04/14 05:18:47;;;;;;;;;77.25;60.50;11.00;49.20;;;;;;4955199;28;8818;-63
2022/04/14 05:21:14;;;;;;;;;84.25;72.00;11.10;49.10;;;;;;4956859;28;8795;-58
2022/04/14 05:23:40;;;;;;;;;80.75;66.00;11.20;49.00;;;;;;4956559;28;8792;-61
2022/04/14 05:26:06;;;;;;;;;81.50;62.25;11.30;49.00;;;;;;4956500;28;8844;-60
2022/04/14 05:28:31;;;;;;;;;86.75;72.50;11.40;48.90;;;;;;4956779;28;8927;-58
2022/04/14 05:30:57;;;;;;;;;89.50;79.00;11.50;49.00;;;;;;4956534;28;8796;-58
2022/04/14 05:33:23;;;;;;;;;91.00;75.25;11.50;49.00;;;;;;4956366;28;8789;-60
2022/04/14 05:35:49;;;;;;;;;87.75;77.75;11.70;48.80;;;;;;4956385;28;8788;-58
2022/04/14 05:38:15;;;;;;;;;89.25;79.25;11.80;48.10;;;;;;4956312;28;8789;-58
2022/04/14 05:40:43;;;;;;;;;104.75;95.00;11.80;48.50;;;;;;4956555;28;8788;-59
2022/04/14 05:43:19;;;;;;;;;103.50;95.25;11.60;48.70;;;;;;4956382;28;8804;-56
2022/04/14 05:45:47;;;;;;;;;91.25;78.50;11.90;48.10;;;;;;4956454;28;8835;-59
2022/04/14 05:48:16;;;;;;;;;109.00;100.00;11.90;47.80;;;;;;4956478;28;8943;-58
2022/04/14 05:50:43;;;;;;;;;115.75;105.50;12.00;47.90;;;;;;4958877;28;8793;-57
2022/04/14 05:53:09;;;;;;;;;121.00;110.50;12.30;47.30;;;;;;4975472;28;8780;-58
2022/04/14 05:55:35;;;;;;;;;100.00;95.25;12.40;46.90;;;;;;4975710;28;8804;-58
2022/04/14 05:58:03;;;;;;;;;95.50;93.25;12.40;46.50;;;;;;4958394;28;8788;-60
2022/04/14 06:00:32;;;;;;;;;102.50;95.50;12.50;46.40;;;;;;4975943;28;8867;-59
2022/04/14 06:02:59;;;;;;;;;106.50;97.00;12.60;46.10;;;;;;4975468;28;8963;-59
2022/04/14 06:05:29;;;;;;;;;95.00;83.00;12.60;45.80;;;;;;4975576;28;8800;-58
2022/04/14 06:07:56;;;;;;;;;96.00;89.75;12.70;46.20;;;;;;4975607;28;8772;-58
2022/04/14 06:10:23;;;;;;;;;101.75;91.25;12.70;47.00;;;;;;4975298;28;8807;-60
2022/04/14 06:12:49;;;;;;;;;100.25;95.75;12.60;46.80;;;;;;4978800;28;8765;-59
2022/04/14 06:15:15;;;;;;;;;97.50;87.25;12.20;46.50;;;;;;4979640;28;8772;-61
2022/04/14 06:17:42;;;;;;;;;108.00;101.50;12.40;46.80;;;;;;4979307;28;8791;-62
2022/04/14 06:20:09;;;;;;;;;108.50;103.25;12.70;46.70;;;;;;4979501;28;9456;-61
2022/04/14 06:22:39;;;;;;;;;106.25;97.50;13.00;45.70;;;;;;4979319;28;8875;-61
2022/04/14 06:25:12;;;;;;;;;113.75;104.75;13.00;45.90;;;;;;4979092;28;8805;-60
2022/04/14 06:27:42;;;;;;;;;120.75;109.25;13.00;46.10;;;;;;4978932;28;8769;-58
2022/04/14 06:30:09;;;;;;;;;123.25;117.25;13.20;46.30;;;;;;4961844;28;8855;-59
2022/04/14 06:32:36;;;;;;;;;109.00;104.75;13.40;45.70;;;;;;4978934;28;9439;-59
2022/04/14 06:35:03;;;;;;;;;119.25;107.25;13.60;46.00;;;;;;4979195;28;8777;-58
2022/04/14 06:37:29;;;;;;;;;110.75;108.50;13.60;45.20;;;;;;4978972;28;8757;-57
2022/04/14 06:39:55;;;;;;;;;116.25;108.25;13.70;45.00;;;;;;4979113;28;8773;-61
2022/04/14 06:42:23;;;;;;;;;114.50;105.50;13.90;44.30;;;;;;4978856;28;9470;-61
2022/04/14 06:44:49;;;;;;;;;111.75;103.50;14.00;44.40;;;;;;4978750;28;8825;-61
2022/04/14 06:47:15;;;;;;;;;122.75;105.00;14.10;44.20;;;;;;4978777;28;8827;-61
2022/04/14 06:49:41;;;;;;;;;102.50;95.50;14.30;43.20;;;;;;4978987;28;8777;-61
2022/04/14 06:52:07;;;;;;;;;115.25;105.50;14.40;43.30;;;;;;4978642;28;8851;-62
2022/04/14 06:54:33;;;;;;;;;93.25;86.75;14.50;43.00;;;;;;4978671;28;8793;-62
2022/04/14 06:56:59;;;;;;;;;113.75;105.50;14.70;42.10;;;;;;4978783;28;8773;-60
2022/04/14 06:59:27;;;;;;;;;99.50;95.00;14.80;42.90;;;;;;4978780;28;8769;-59
2022/04/14 07:01:53;;;;;;;;;98.00;94.25;15.00;42.40;;;;;;4978769;28;8769;-57
2022/04/14 07:04:19;;;;;;;;;102.75;94.25;15.00;42.80;;;;;;4978423;28;8788;-58
2022/04/14 07:06:46;;;;;;;;;105.00;96.50;15.20;42.70;;;;;;4978186;28;8788;-60
2022/04/14 07:09:11;;;;;;;;;96.00;91.00;15.30;42.20;;;;;;4978339;28;8785;-59
2022/04/14 07:11:37;;;;;;;;;90.75;89.75;15.30;42.40;;;;;;4978236;28;8907;-56
2022/04/14 07:14:03;;;;;;;;;90.25;82.25;15.40;42.70;;;;;;4978298;28;8809;-57
2022/04/14 07:16:28;;;;;;;;;90.50;85.25;15.20;42.20;;;;;;4978333;28;8789;-58
2022/04/14 07:18:54;;;;;;;;;89.75;79.25;15.50;41.70;;;;;;4977761;28;8819;-58
2022/04/14 07:21:20;;;;;;;;;88.50;80.00;15.50;41.80;;;;;;4978460;28;8777;-58
2022/04/14 07:23:46;;;;;;;;;81.75;72.00;15.60;41.40;;;;;;4977616;28;8867;-58
2022/04/14 07:26:11;;;;;;;;;85.50;77.75;15.50;41.50;;;;;;4978006;28;8847;-57
2022/04/14 07:28:37;;;;;;;;;92.00;81.25;15.50;41.20;;;;;;4978344;28;8765;-58
2022/04/14 07:31:03;;;;;;;;;100.00;91.50;15.80;40.80;;;;;;4977990;28;8808;-55
2022/04/14 07:33:28;;;;;;;;;101.75;99.50;15.90;40.40;;;;;;4977969;28;8803;-58
2022/04/14 07:35:54;;;;;;;;;100.50;86.75;15.90;37.90;;;;;;4977867;28;8769;-58
2022/04/14 07:38:20;;;;;;;;;89.50;81.25;15.60;37.60;;;;;;4977795;28;8777;-58
2022/04/14 07:40:46;;;;;;;;;82.50;75.00;14.80;37.60;;;;;;4978002;28;8772;-58
2022/04/14 07:43:12;;;;;;;;;89.50;81.00;14.80;38.00;;;;;;4977981;28;8797;-58
2022/04/14 07:45:39;;;;;;;;;86.50;79.00;15.20;39.00;;;;;;4977940;28;9490;-58
2022/04/14 07:48:05;;;;;;;;;79.00;64.00;15.70;36.30;;;;;;4977696;28;8777;-58
2022/04/14 07:50:32;;;;;;;;;77.00;70.50;15.70;36.10;;;;;;4977709;28;8812;-58
2022/04/14 07:52:59;;;;;;;;;82.00;66.50;15.70;36.20;;;;;;4977523;28;8787;-58
2022/04/14 07:55:32;;;;;;;;;82.25;73.00;16.30;35.70;;;;;;4977545;28;8788;-58
2022/04/14 07:58:04;;;;;;;;;79.75;63.75;16.60;35.20;;;;;;4977529;28;8856;-58
2022/04/14 08:00:30;;;;;;;;;53.00;45.00;16.80;34.50;;;;;;4977505;28;8773;-58
2022/04/14 08:02:58;;;;;;;;;53.00;44.75;16.40;34.20;;;;;;4977490;28;8775;-58
2022/04/14 08:05:33;;;;;;;;;51.50;43.00;16.60;33.20;;;;;;4977589;28;8793;-59
2022/04/14 08:08:03;;;;;;;;;54.00;44.50;16.60;32.20;;;;;;4977582;28;9435;-60
2022/04/14 08:10:29;;;;;;;;;42.00;36.00;16.70;31.70;;;;;;4977454;28;8875;-59
2022/04/14 08:12:55;;;;;;;;;37.75;35.00;16.00;32.30;;;;;;4977246;28;9415;-59
2022/04/14 08:15:21;;;;;;;;;38.25;35.25;16.40;32.30;;;;;;4977169;28;8777;-57
2022/04/14 08:17:47;;;;;;;;;33.25;31.00;16.80;30.90;;;;;;4977016;28;8777;-59
2022/04/14 08:20:15;;;;;;;;;33.00;31.75;16.70;30.70;;;;;;4977326;28;8776;-58
2022/04/14 08:22:52;;;;;;;;;25.67;24.33;17.00;30.90;;;;;;4977333;28;8854;-58
2022/04/14 08:25:44;;;;;;;;;21.00;21.00;17.20;29.50;;;;;;4977223;28;9471;-59
2022/04/14 08:28:10;;;;;;;;;17.33;15.67;16.90;29.00;;;;;;4972525;28;8785;-59
2022/04/14 08:30:36;;;;;;;;;14.00;14.00;16.90;27.60;;;;;;4977214;28;8812;-59
2022/04/14 08:33:07;;;;;;;;;19.33;18.00;16.70;27.80;;;;;;4967341;28;8791;-56
2022/04/14 08:35:34;;;;;;;;;19.00;19.00;17.10;27.50;;;;;;4955605;28;8773;-58
2022/04/14 08:38:06;;;;;;;;;20.67;20.67;17.00;28.40;;;;;;4956266;28;9412;-59
2022/04/14 08:40:41;;;;;;;;;19.67;18.00;17.10;28.50;;;;;;4955938;28;8804;-59
2022/04/14 08:43:08;;;;;;;;;18.33;17.00;17.20;29.10;;;;;;4953883;28;8812;-58
2022/04/14 08:45:46;;;;;;;;;21.67;20.67;16.80;29.20;;;;;;4956448;28;8807;-58
2022/04/14 08:48:13;;;;;;;;;18.00;18.00;17.20;28.30;;;;;;4957336;28;8813;-58
2022/04/14 08:50:39;;;;;;;;;15.00;15.00;17.40;28.40;;;;;;4956903;28;8791;-58
2022/04/14 08:53:05;;;;;;;;;13.33;13.33;17.30;25.60;;;;;;4957341;28;8792;-59
2022/04/14 08:55:31;;;;;;;;;14.67;13.00;17.20;26.50;;;;;;4957173;28;8780;-60
2022/04/14 08:57:59;;;;;;;;;11.33;10.33;17.50;27.10;;;;;;4957192;28;9493;-59
2022/04/14 09:00:25;;;;;;;;;17.67;17.00;18.00;26.00;;;;;;4957265;28;8760;-58
2022/04/14 09:02:54;;;;;;;;;16.67;14.00;17.70;25.20;;;;;;4956058;28;8947;-58
2022/04/14 09:05:19;;;;;;;;;17.00;17.00;17.50;26.70;;;;;;4956860;28;8839;-57
2022/04/14 09:07:50;;;;;;;;;15.00;15.00;17.90;25.50;;;;;;4956981;28;8781;-59
2022/04/14 09:10:16;;;;;;;;;14.00;13.67;18.00;26.40;;;;;;4957107;28;8761;-59
2022/04/14 09:12:42;;;;;;;;;12.67;12.00;17.90;27.00;;;;;;4957064;28;8800;-58
2022/04/14 09:15:09;;;;;;;;;16.33;15.67;18.30;26.50;;;;;;4957127;28;9546;-58
2022/04/14 09:17:35;;;;;;;;;12.00;11.33;18.20;25.80;;;;;;4956824;28;8769;-58
2022/04/14 09:20:28;;;;;;;;;15.00;13.67;18.10;25.30;;;;;;4956854;28;8871;-64
2022/04/14 09:23:25;;;;;;;;;15.67;15.00;18.40;25.10;;;;;;4956595;28;9474;-57
2022/04/14 09:26:13;;;;;;;;;15.00;15.00;18.20;26.80;;;;;;4956415;28;8831;-59
2022/04/14 09:29:00;;;;;;;;;17.00;13.67;18.60;27.00;;;;;;4956673;28;9340;-58
2022/04/14 09:31:28;;;;;;;;;17.00;17.00;19.20;27.00;;;;;;4956507;28;8994;-64
2022/04/14 09:33:54;;;;;;;;;16.67;15.00;19.50;27.00;;;;;;4956459;28;8795;-58
2022/04/14 09:36:21;;;;;;;;;21.33;17.67;19.60;26.50;;;;;;4956421;28;8901;-59
2022/04/14 09:38:52;;;;;;;;;15.00;15.00;19.60;25.00;;;;;;4956397;28;8785;-61
2022/04/14 09:41:41;;;;;;;;;17.00;16.33;18.80;24.60;;;;;;4956592;28;8776;-60
2022/04/14 09:44:14;;;;;;;;;16.00;13.33;18.40;24.20;;;;;;4956692;28;9458;-59
2022/04/14 09:46:44;;;;;;;;;22.33;22.33;18.40;24.10;;;;;;4956411;28;8832;-64
2022/04/14 09:49:11;;;;;;;;;18.33;18.33;19.00;24.80;;;;;;4956296;28;8786;-65
2022/04/14 09:51:48;;;;;;;;;12.33;12.33;19.20;26.10;;;;;;4956239;28;8850;-60
2022/04/14 09:54:28;;;;;;;;;14.00;13.67;19.10;26.10;;;;;;4956653;28;8863;-59
2022/04/14 09:56:56;;;;;;;;;13.33;12.67;19.40;25.40;;;;;;4956515;28;8784;-60
2022/04/14 09:59:23;;;;;;;;;12.67;12.67;19.50;24.90;;;;;;4955994;28;8796;-60
2022/04/14 10:02:06;;;;;;;;;14.33;14.33;19.70;25.30;;;;;;4956096;28;8780;-59
2022/04/14 10:04:35;;;;;;;;;15.00;14.33;19.70;24.60;;;;;;4956324;28;8819;-58
2022/04/14 10:07:09;;;;;;;;;13.00;12.00;20.00;23.30;;;;;;4955922;29;8780;-59
2022/04/14 10:09:39;;;;;;;;;16.33;15.00;19.70;24.00;;;;;;4956349;29;8795;-58
2022/04/14 10:12:25;;;;;;;;;19.00;18.00;19.90;24.20;;;;;;4956240;29;8780;-61
2022/04/14 10:15:02;;;;;;;;;11.33;11.33;20.70;24.20;;;;;;4955801;29;8906;-67
2022/04/14 10:17:32;;;;;;;;;14.33;14.33;20.60;24.10;;;;;;4955937;29;8784;-56
2022/04/14 10:19:58;;;;;;;;;14.33;14.33;20.30;22.70;;;;;;4956065;29;9439;-61
2022/04/14 10:22:26;;;;;;;;;16.00;16.00;20.00;24.90;;;;;;4956113;29;8918;-62
2022/04/14 10:24:53;;;;;;;;;13.33;11.67;20.00;23.60;;;;;;4955998;29;9619;-61
2022/04/14 10:27:20;;;;;;;;;20.00;19.67;20.20;22.70;;;;;;4955969;29;8788;-57
2022/04/14 10:29:47;;;;;;;;;16.33;15.67;20.60;22.40;;;;;;4955759;29;8784;-56
2022/04/14 10:32:14;;;;;;;;;31.33;29.67;21.00;23.40;;;;;;4955791;29;8883;-57
2022/04/14 10:34:41;;;;;;;;;14.33;14.00;21.00;25.80;;;;;;4955532;29;8788;-56
2022/04/14 10:37:15;;;;;;;;;17.00;16.33;20.60;24.80;;;;;;4955841;29;8789;-57
2022/04/14 10:39:48;;;;;;;;;16.00;16.00;20.80;23.60;;;;;;4955487;29;8780;-55
2022/04/14 10:42:18;;;;;;;;;15.67;15.67;21.60;24.60;;;;;;4956003;29;9439;-56
2022/04/14 10:44:49;;;;;;;;;14.67;14.00;22.00;24.10;;;;;;4955840;29;8805;-55
2022/04/14 10:47:32;;;;;;;;;14.67;13.67;21.60;23.80;;;;;;4955903;29;8811;-56
2022/04/14 10:49:57;;;;;;;;;17.33;16.67;21.00;22.80;;;;;;4955686;29;8788;-56
2022/04/14 10:52:27;;;;;;;;;15.33;13.33;21.70;24.50;;;;;;4955489;28;8842;-56
2022/04/14 10:54:57;;;;;;;;;13.00;12.00;22.00;23.90;;;;;;4955809;29;8799;-56
2022/04/14 10:57:40;;;;;;;;;13.00;13.00;21.50;22.70;;;;;;4956758;28;8796;-55
2022/04/14 11:00:20;;;;;;;;;13.00;13.00;21.40;21.80;;;;;;4959274;28;8784;-57
2022/04/14 11:03:05;;;;;;;;;17.33;17.33;22.10;23.70;;;;;;4959201;28;8795;-56
2022/04/14 11:05:44;;;;;;;;;15.00;13.67;22.30;24.80;;;;;;4959250;28;8889;-55
2022/04/14 11:08:29;;;;;;;;;10.00;10.00;22.10;22.70;;;;;;4955491;28;8906;-54
2022/04/14 11:11:12;;;;;;;;;14.00;14.00;21.80;22.30;;;;;;4947880;28;8780;-56
2022/04/14 11:13:53;;;;;;;;;9.00;9.00;22.00;21.50;;;;;;4959348;28;8967;-55
2022/04/14 11:16:42;;;;;;;;;10.67;10.67;22.10;21.90;;;;;;4958701;28;8792;-55
2022/04/14 11:19:24;;;;;;;;;13.67;12.00;21.70;21.80;;;;;;4958900;28;8776;-55
2022/04/14 11:22:08;;;;;;;;;15.33;15.00;21.70;20.40;;;;;;4958683;28;11569;-54
2022/04/14 11:24:37;;;;;;;;;15.33;15.33;21.90;21.60;;;;;;4958813;28;8789;-55
2022/04/14 11:27:22;;;;;;;;;17.00;16.00;22.70;21.30;;;;;;4958808;28;9490;-57
2022/04/14 11:29:51;;;;;;;;;12.67;11.67;22.90;21.10;;;;;;4958987;28;8816;-56
2022/04/14 11:32:36;;;;;;;;;18.33;15.33;23.60;22.10;;;;;;4951230;28;8800;-57
2022/04/14 11:35:16;;;;;;;;;15.00;15.00;23.60;19.50;;;;;;4946305;28;8839;-56
2022/04/14 11:37:44;;;;;;;;;13.33;12.67;23.70;20.50;;;;;;4958943;28;8797;-58
2022/04/14 11:40:10;;;;;;;;;10.33;10.33;23.50;19.60;;;;;;4958716;28;11528;-55
2022/04/14 11:42:36;;;;;;;;;14.67;14.67;23.50;19.70;;;;;;4952346;28;11575;-56
2022/04/14 11:45:02;;;;;;;;;13.00;12.00;24.00;22.50;;;;;;4951677;28;11612;-55
2022/04/14 11:47:28;;;;;;;;;13.33;13.33;25.30;21.30;;;;;;4947772;29;8865;-56
2022/04/14 11:49:54;;;;;;;;;12.33;12.33;24.90;20.30;;;;;;4938756;28;11601;-54
2022/04/14 11:52:23;;;;;;;;;16.67;13.67;24.30;20.30;;;;;;4948099;28;11654;-57
2022/04/14 11:54:53;;;;;;;;;10.00;10.00;23.90;20.70;;;;;;4947481;29;8818;-57
2022/04/14 11:57:23;;;;;;;;;17.67;15.67;24.00;21.20;;;;;;4950160;28;8866;-56
2022/04/14 11:59:50;;;;;;;;;14.33;14.33;23.90;21.00;;;;;;4937913;29;11581;-56
2022/04/14 12:02:19;;;;;;;;;15.00;13.67;24.60;22.30;;;;;;4942650;28;11548;-56
2022/04/14 12:04:46;;;;;;;;;14.67;13.33;24.90;22.90;;;;;;4949305;28;11544;-55
2022/04/14 12:07:13;;;;;;;;;12.33;12.33;25.70;22.60;;;;;;4947375;29;12232;-55
2022/04/14 12:09:40;;;;;;;;;12.00;12.00;25.60;19.70;;;;;;4938899;29;11658;-56
2022/04/14 12:12:24;;;;;;;;;10.33;10.33;25.70;20.90;;;;;;4948314;28;11540;-57
2022/04/14 12:14:52;;;;;;;;;13.00;13.00;24.90;19.70;;;;;;4950225;28;12287;-56
2022/04/14 12:17:23;;;;;;;;;15.00;14.67;24.70;19.70;;;;;;4958016;28;11558;-56
2022/04/14 12:19:57;;;;;;;;;12.33;12.33;24.30;19.80;;;;;;4957068;28;11574;-56
2022/04/14 12:22:26;;;;;;;;;12.67;12.67;24.60;18.40;;;;;;4947245;28;11620;-53
2022/04/14 12:24:57;;;;;;;;;10.75;10.75;24.90;18.20;;;;;;4945308;28;11597;-54
2022/04/14 12:27:27;;;;;;;;;10.50;10.50;25.70;17.80;;;;;;4949424;28;11571;-56
2022/04/14 12:30:02;;;;;;;;;13.75;13.75;25.50;17.70;;;;;;4945268;28;11573;-57
2022/04/14 12:32:28;;;;;;;;;13.00;12.50;26.40;18.80;;;;;;4948240;28;11573;-55
2022/04/14 12:34:55;;;;;;;;;9.75;9.75;26.20;19.10;;;;;;4948529;28;11568;-55
2022/04/14 12:37:22;;;;;;;;;31.33;28.00;25.80;18.90;;;;;;4943923;28;11677;-55
2022/04/14 12:40:13;;;;;;;;;10.00;10.00;25.90;18.60;;;;;;4943325;29;8814;-58
2022/04/14 12:42:40;;;;;;;;;12.00;12.00;30.10;17.10;;;;;;4938209;29;11534;-58